createdAt,value
2019-01-20T00:01:29.593Z,100937.53
2019-01-20T00:03:55.477Z,100936.73
2019-01-20T00:06:21.397Z,100937.59
2019-01-20T00:08:47.266Z,100929.31
2019-01-20T00:11:16.680Z,100933.92
2019-01-20T00:13:41.002Z,100931.25
2019-01-20T00:16:07.002Z,100932.52
2019-01-20T00:18:32.892Z,100933.42
2019-01-20T00:20:58.817Z,100932.52
2019-01-20T00:23:24.720Z,100926.34
2019-01-20T00:25:50.628Z,100932.84
2019-01-20T00:28:16.513Z,100928.05
2019-01-20T00:30:42.424Z,100930.56
2019-01-20T00:33:08.350Z,100930.56
2019-01-20T00:35:34.227Z,100929.22
2019-01-20T00:38:00.172Z,100928.76
2019-01-20T00:40:26.086Z,100931.20
2019-01-20T00:42:51.971Z,100932.69
2019-01-20T00:45:17.912Z,100927.17
2019-01-20T00:47:43.805Z,100931.69
2019-01-20T00:50:11.395Z,100936.30
2019-01-20T00:52:37.279Z,100936.67
2019-01-20T00:55:06.318Z,100935.30
2019-01-20T00:57:32.456Z,100930.14
2019-01-20T00:59:58.346Z,100930.92
2019-01-20T01:02:24.379Z,100928.22
2019-01-20T01:04:50.289Z,100926.55
2019-01-20T01:07:16.214Z,100925.64
2019-01-20T01:09:42.095Z,100922.09
2019-01-20T01:12:09.925Z,100920.71
2019-01-20T01:14:35.797Z,100918.98
2019-01-20T01:17:01.716Z,100921.09
2019-01-20T01:19:27.590Z,100924.95
2019-01-20T01:21:53.548Z,100933.95
2019-01-20T01:24:19.454Z,100924.77
2019-01-20T01:26:45.371Z,100929.52
2019-01-20T01:29:11.353Z,100928.83
2019-01-20T01:31:37.292Z,100920.58
2019-01-20T01:34:03.201Z,100928.70
2019-01-20T01:36:29.101Z,100924.29
2019-01-20T01:38:54.968Z,100920.14
2019-01-20T01:41:20.878Z,100917.38
2019-01-20T01:43:46.786Z,100916.08
2019-01-20T01:46:12.653Z,100919.82
2019-01-20T01:48:38.549Z,100919.38
2019-01-20T01:51:04.420Z,100920.12
2019-01-20T01:53:30.336Z,100909.88
2019-01-20T01:55:56.248Z,100916.13
2019-01-20T01:58:22.204Z,100922.73
2019-01-20T02:00:48.131Z,100920.47
2019-01-20T02:03:14.038Z,100919.14
2019-01-20T02:05:39.904Z,100911.23
2019-01-20T02:08:05.806Z,100915.17
2019-01-20T02:10:31.714Z,100909.47
2019-01-20T02:12:57.583Z,100912.56
2019-01-20T02:15:23.493Z,100913.88
2019-01-20T02:17:49.360Z,100911.72
2019-01-20T02:20:21.470Z,100911.47
2019-01-20T02:22:47.344Z,100918.43
2019-01-20T02:25:13.417Z,100908.59
2019-01-20T02:27:39.319Z,100914.19
2019-01-20T02:30:14.740Z,100916.80
2019-01-20T02:32:40.671Z,100915.95
2019-01-20T02:35:06.575Z,100916.70
2019-01-20T02:37:32.482Z,100913.17
2019-01-20T02:39:58.354Z,100918.25
2019-01-20T02:42:24.387Z,100923.84
2019-01-20T02:44:50.287Z,100920.24
2019-01-20T02:47:16.154Z,100922.05
2019-01-20T02:49:42.061Z,100922.89
2019-01-20T02:52:07.959Z,100927.64
2019-01-20T02:54:33.856Z,100929.78
2019-01-20T02:56:59.790Z,100920.35
2019-01-20T02:59:25.685Z,100930.69
2019-01-20T03:01:51.851Z,100925.28
2019-01-20T03:04:17.762Z,100922.71
2019-01-20T03:06:43.631Z,100925.28
2019-01-20T03:09:09.851Z,100923.92
2019-01-20T03:11:35.741Z,100922.71
2019-01-20T03:14:01.716Z,100933.45
2019-01-20T03:16:27.608Z,100932.61
2019-01-20T03:18:54.788Z,100925.69
2019-01-20T03:21:20.807Z,100921.34
2019-01-20T03:23:46.703Z,100924.00
2019-01-20T03:26:12.595Z,100929.48
2019-01-20T03:28:38.470Z,100922.85
2019-01-20T03:31:04.388Z,100922.85
2019-01-20T03:33:31.110Z,100921.45
2019-01-20T03:35:56.974Z,100920.93
2019-01-20T03:38:22.891Z,100915.37
2019-01-20T03:40:48.806Z,100917.59
2019-01-20T03:43:14.724Z,100915.34
2019-01-20T03:45:40.597Z,100901.75
2019-01-20T03:48:06.614Z,100912.69
2019-01-20T03:50:32.480Z,100919.64
2019-01-20T03:52:58.379Z,100915.70
2019-01-20T03:55:24.290Z,100914.94
2019-01-20T03:57:50.158Z,100913.86
2019-01-20T04:00:21.223Z,100913.86
2019-01-20T04:02:49.097Z,100912.78
2019-01-20T04:05:15.045Z,100915.59
2019-01-20T04:07:40.925Z,100913.34
2019-01-20T04:10:14.633Z,100909.99
2019-01-20T04:12:40.546Z,100912.94
2019-01-20T04:15:07.338Z,100913.78
2019-01-20T04:17:33.235Z,100908.30
2019-01-20T04:19:59.111Z,100916.44
2019-01-20T04:22:25.015Z,100915.19
2019-01-20T04:24:50.920Z,100924.80
2019-01-20T04:27:16.829Z,100921.50
2019-01-20T04:29:42.695Z,100918.61
2019-01-20T04:32:08.715Z,100924.08
2019-01-20T04:34:34.599Z,100925.57
2019-01-20T04:37:00.477Z,100924.52
2019-01-20T04:39:26.395Z,100927.14
2019-01-20T04:41:52.264Z,100917.93
2019-01-20T04:44:18.163Z,100919.53
2019-01-20T04:46:44.032Z,100918.89
2019-01-20T04:49:09.925Z,100923.92
2019-01-20T04:51:35.807Z,100933.84
2019-01-20T04:54:02.017Z,100929.19
2019-01-20T04:56:27.927Z,100938.79
2019-01-20T04:58:53.812Z,100940.92
2019-01-20T05:01:19.719Z,100942.78
2019-01-20T05:03:45.637Z,100935.06
2019-01-20T05:06:11.536Z,100942.13
2019-01-20T05:08:37.416Z,100934.84
2019-01-20T05:11:03.326Z,100936.27
2019-01-20T05:13:29.203Z,100944.42
2019-01-20T05:15:55.054Z,100946.17
2019-01-20T05:18:20.960Z,100942.88
2019-01-20T05:20:46.834Z,100943.77
2019-01-20T05:23:12.741Z,100949.15
2019-01-20T05:25:38.638Z,100944.52
2019-01-20T05:28:04.549Z,100946.57
2019-01-20T05:30:30.432Z,100950.75
2019-01-20T05:32:56.344Z,100949.94
2019-01-20T05:35:22.244Z,100948.21
2019-01-20T05:37:48.128Z,100949.55
2019-01-20T05:40:17.404Z,100950.42
2019-01-20T05:42:46.376Z,100943.20
2019-01-20T05:45:13.830Z,100947.77
2019-01-20T05:47:39.687Z,100951.67
2019-01-20T05:50:08.601Z,100949.72
2019-01-20T05:52:34.463Z,100956.15
2019-01-20T05:55:00.363Z,100950.52
2019-01-20T05:57:26.279Z,100948.34
2019-01-20T05:59:52.233Z,100951.53
2019-01-20T06:02:18.109Z,100951.53
2019-01-20T06:04:44.031Z,100946.53
2019-01-20T06:07:09.913Z,100945.14
2019-01-20T06:09:35.790Z,100941.06
2019-01-20T06:12:01.705Z,100945.32
2019-01-20T06:14:27.587Z,100943.69
2019-01-20T06:16:53.512Z,100940.03
2019-01-20T06:19:19.396Z,100952.71
2019-01-20T06:21:45.296Z,100947.62
2019-01-20T06:24:11.169Z,100951.33
2019-01-20T06:26:37.096Z,100948.84
2019-01-20T06:29:02.959Z,100959.38
2019-01-20T06:31:28.870Z,100956.52
2019-01-20T06:33:54.823Z,100956.81
2019-01-20T06:36:20.686Z,100958.01
2019-01-20T06:38:46.594Z,100956.39
2019-01-20T06:41:12.477Z,100955.59
2019-01-20T06:43:38.412Z,100958.02
2019-01-20T06:46:04.283Z,100961.53
2019-01-20T06:48:30.182Z,100964.10
2019-01-20T06:50:56.056Z,100962.50
2019-01-20T06:53:21.988Z,100965.84
2019-01-20T06:55:47.859Z,100972.35
2019-01-20T06:58:13.797Z,100976.95
2019-01-20T07:00:39.701Z,100980.27
2019-01-20T07:03:05.563Z,100979.37
2019-01-20T07:05:31.484Z,100985.41
2019-01-20T07:07:57.361Z,100989.94
2019-01-20T07:10:23.265Z,100992.13
2019-01-20T07:12:49.165Z,100995.27
2019-01-20T07:15:17.253Z,100997.48
2019-01-20T07:17:43.169Z,101004.55
2019-01-20T07:20:10.681Z,101005.20
2019-01-20T07:22:36.661Z,101008.66
2019-01-20T07:25:04.601Z,101010.55
2019-01-20T07:27:30.479Z,101012.86
2019-01-20T07:29:56.429Z,101021.03
2019-01-20T07:32:22.333Z,101024.30
2019-01-20T07:34:48.233Z,101029.34
2019-01-20T07:37:14.119Z,101026.77
2019-01-20T07:39:39.992Z,101033.19
2019-01-20T07:42:05.896Z,101029.64
2019-01-20T07:44:31.798Z,101031.13
2019-01-20T07:46:57.715Z,101033.41
2019-01-20T07:49:23.586Z,101039.34
2019-01-20T07:51:49.506Z,101045.07
2019-01-20T07:54:15.376Z,101054.36
2019-01-20T07:56:41.301Z,101037.80
2019-01-20T07:59:07.274Z,101048.03
2019-01-20T08:01:33.289Z,101052.19
2019-01-20T08:03:59.219Z,101055.00
2019-01-20T08:06:25.170Z,101053.73
2019-01-20T08:08:51.056Z,101056.05
2019-01-20T08:11:17.061Z,101052.13
2019-01-20T08:13:42.950Z,101052.91
2019-01-20T08:16:08.850Z,101055.14
2019-01-20T08:18:34.806Z,101057.45
2019-01-20T08:21:00.732Z,101058.19
2019-01-20T08:23:26.733Z,101055.66
2019-01-20T08:25:52.693Z,101058.96
2019-01-20T08:28:18.604Z,101062.69
2019-01-20T08:30:44.476Z,101066.11
2019-01-20T08:33:10.415Z,101056.08
2019-01-20T08:35:36.275Z,101064.15
2019-01-20T08:38:02.200Z,101062.06
2019-01-20T08:40:28.230Z,101065.53
2019-01-20T08:42:54.097Z,101061.66
2019-01-20T08:45:35.655Z,101072.27
2019-01-20T08:48:11.117Z,101071.50
2019-01-20T08:50:37.025Z,101077.98
2019-01-20T08:53:02.899Z,101078.47
2019-01-20T08:55:28.811Z,101078.20
2019-01-20T08:57:54.721Z,101085.56
2019-01-20T09:00:20.655Z,101088.86
2019-01-20T09:02:46.507Z,101087.50
2019-01-20T09:05:12.902Z,101086.81
2019-01-20T09:07:38.798Z,101085.85
2019-01-20T09:10:24.725Z,101090.48
2019-01-20T09:12:50.932Z,101092.69
2019-01-20T09:15:16.809Z,101093.93
2019-01-20T09:17:42.854Z,101101.37
2019-01-20T09:20:11.478Z,101105.91
2019-01-20T09:22:37.409Z,101113.84
2019-01-20T09:25:05.019Z,101115.33
2019-01-20T09:27:30.962Z,101119.27
2019-01-20T09:29:56.861Z,101122.27
2019-01-20T09:32:22.791Z,101120.08
2019-01-20T09:34:48.745Z,101117.00
2019-01-20T09:37:14.687Z,101115.49
2019-01-20T09:39:42.490Z,101122.75
2019-01-20T09:42:08.398Z,101129.83
2019-01-20T09:44:34.269Z,101131.19
2019-01-20T09:47:00.182Z,101129.93
2019-01-20T09:49:26.067Z,101130.52
2019-01-20T09:51:52.089Z,101131.87
2019-01-20T09:54:17.984Z,101134.63
2019-01-20T09:56:44.015Z,101137.14
2019-01-20T09:59:09.940Z,101144.88
2019-01-20T10:01:35.870Z,101145.22
2019-01-20T10:04:01.819Z,101142.29
2019-01-20T10:06:27.695Z,101142.29
2019-01-20T10:08:53.609Z,101150.20
2019-01-20T10:11:19.537Z,101148.52
2019-01-20T10:13:45.481Z,101137.09
2019-01-20T10:16:11.340Z,101133.81
2019-01-20T10:18:37.253Z,101135.60
2019-01-20T10:21:03.153Z,101136.55
2019-01-20T10:23:29.037Z,101137.84
2019-01-20T10:25:55.385Z,101134.43
2019-01-20T10:28:21.363Z,101134.58
2019-01-20T10:30:47.281Z,101144.06
2019-01-20T10:33:13.151Z,101148.00
2019-01-20T10:35:41.073Z,101150.31
2019-01-20T10:38:08.659Z,101146.52
2019-01-20T10:40:34.662Z,101153.11
2019-01-20T10:43:00.542Z,101147.56
2019-01-20T10:45:26.460Z,101147.38
2019-01-20T10:47:52.344Z,101142.52
2019-01-20T10:50:18.272Z,101150.08
2019-01-20T10:52:44.583Z,101145.41
2019-01-20T10:55:10.475Z,101153.48
2019-01-20T10:57:36.372Z,101150.30
2019-01-20T11:00:18.013Z,101150.29
2019-01-20T11:02:43.939Z,101154.61
2019-01-20T11:05:09.938Z,101150.44
2019-01-20T11:07:35.855Z,101154.17
2019-01-20T11:10:05.589Z,101147.58
2019-01-20T11:12:31.543Z,101153.42
2019-01-20T11:14:57.421Z,101152.91
2019-01-20T11:17:23.372Z,101148.67
2019-01-20T11:19:49.236Z,101146.84
2019-01-20T11:22:15.167Z,101155.39
2019-01-20T11:24:41.084Z,101150.69
2019-01-20T11:27:07.032Z,101152.31
2019-01-20T11:29:32.909Z,101152.61
2019-01-20T11:31:58.828Z,101147.80
2019-01-20T11:34:24.824Z,101151.00
2019-01-20T11:36:50.697Z,101148.02
2019-01-20T11:39:16.590Z,101148.37
2019-01-20T11:41:42.517Z,101149.25
2019-01-20T11:44:08.407Z,101138.55
2019-01-20T11:46:34.330Z,101146.09
2019-01-20T11:49:00.241Z,101148.33
2019-01-20T11:51:26.173Z,101149.92
2019-01-20T11:53:52.076Z,101138.53
2019-01-20T11:56:18.013Z,101141.05
2019-01-20T11:58:43.890Z,101138.63
2019-01-20T12:01:09.823Z,101141.29
2019-01-20T12:03:35.811Z,101142.50
2019-01-20T12:06:01.745Z,101134.29
2019-01-20T12:08:30.749Z,101139.56
2019-01-20T12:10:55.455Z,101133.59
2019-01-20T12:13:23.327Z,101135.29
2019-01-20T12:15:49.313Z,101138.34
2019-01-20T12:18:15.197Z,101138.06
2019-01-20T12:20:41.127Z,101138.41
2019-01-20T12:23:07.022Z,101137.58
2019-01-20T12:25:32.933Z,101140.55
2019-01-20T12:27:58.844Z,101141.54
2019-01-20T12:30:33.967Z,101141.97
2019-01-20T12:32:59.856Z,101142.40
2019-01-20T12:35:25.780Z,101132.11
2019-01-20T12:37:51.821Z,101139.20
2019-01-20T12:40:21.101Z,101137.09
2019-01-20T12:42:47.049Z,101140.73
2019-01-20T12:45:14.982Z,101150.10
2019-01-20T12:47:41.086Z,101144.30
2019-01-20T12:50:10.664Z,101145.22
2019-01-20T12:52:36.569Z,101152.59
2019-01-20T12:55:03.949Z,101145.58
2019-01-20T12:57:29.871Z,101143.97
2019-01-20T12:59:55.786Z,101144.38
2019-01-20T13:02:21.723Z,101144.42
2019-01-20T13:04:47.829Z,101146.73
2019-01-20T13:07:13.717Z,101150.08
2019-01-20T13:09:39.657Z,101143.45
2019-01-20T13:12:05.601Z,101143.89
2019-01-20T13:14:31.555Z,101143.89
2019-01-20T13:16:57.446Z,101150.06
2019-01-20T13:19:23.449Z,101154.15
2019-01-20T13:21:49.327Z,101150.97
2019-01-20T13:24:15.252Z,101154.06
2019-01-20T13:26:41.179Z,101151.75
2019-01-20T13:29:07.131Z,101155.20
2019-01-20T13:31:33.059Z,101145.87
2019-01-20T13:33:58.967Z,101145.34
2019-01-20T13:36:24.850Z,101151.63
2019-01-20T13:38:53.287Z,101156.93
2019-01-20T13:41:21.331Z,101150.30
2019-01-20T13:43:47.340Z,101156.84
2019-01-20T13:46:13.234Z,101155.11
2019-01-20T13:48:39.145Z,101151.41
2019-01-20T13:51:05.020Z,101147.64
2019-01-20T13:53:30.900Z,101152.61
2019-01-20T13:56:01.220Z,101154.72
2019-01-20T13:58:24.622Z,101151.74
2019-01-20T14:00:50.623Z,101150.19
2019-01-20T14:03:16.491Z,101151.68
2019-01-20T14:05:42.435Z,101153.95
2019-01-20T14:08:08.340Z,101151.77
2019-01-20T14:10:34.248Z,101153.30
2019-01-20T14:13:00.160Z,101152.66
2019-01-20T14:15:26.084Z,101155.45
2019-01-20T14:17:51.960Z,101165.48
2019-01-20T14:20:25.108Z,101164.32
2019-01-20T14:22:51.114Z,101163.73
2019-01-20T14:25:26.342Z,101167.69
2019-01-20T14:27:52.304Z,101167.97
2019-01-20T14:30:23.918Z,101171.29
2019-01-20T14:32:49.851Z,101168.80
2019-01-20T14:35:16.696Z,101177.38
2019-01-20T14:37:42.597Z,101177.38
2019-01-20T14:40:12.301Z,101172.96
2019-01-20T14:42:38.227Z,101172.05
2019-01-20T14:45:06.941Z,101175.08
2019-01-20T14:47:32.857Z,101185.87
2019-01-20T14:49:58.844Z,101176.48
2019-01-20T14:52:24.758Z,101176.63
2019-01-20T14:54:50.671Z,101185.11
2019-01-20T14:57:16.666Z,101177.05
2019-01-20T14:59:42.645Z,101180.83
2019-01-20T15:02:08.539Z,101187.50
2019-01-20T15:04:34.521Z,101196.17
2019-01-20T15:07:00.452Z,101189.16
2019-01-20T15:09:26.616Z,101192.04
2019-01-20T15:11:52.628Z,101199.20
2019-01-20T15:14:18.589Z,101197.16
2019-01-20T15:16:44.491Z,101206.19
2019-01-20T15:19:10.493Z,101199.97
2019-01-20T15:21:36.421Z,101202.23
2019-01-20T15:24:02.443Z,101197.73
2019-01-20T15:26:28.545Z,101203.44
2019-01-20T15:28:54.455Z,101199.23
2019-01-20T15:31:20.354Z,101203.02
2019-01-20T15:33:46.237Z,101200.82
2019-01-20T15:36:12.151Z,101221.11
2019-01-20T15:38:38.032Z,101222.89
2019-01-20T15:41:03.996Z,101220.43
2019-01-20T15:43:30.270Z,101218.58
2019-01-20T15:45:56.250Z,101218.84
2019-01-20T15:48:22.171Z,101220.08
2019-01-20T15:50:48.040Z,101224.81
2019-01-20T15:53:13.968Z,101233.42
2019-01-20T15:55:39.870Z,101227.45
2019-01-20T15:58:05.805Z,101234.03
2019-01-20T16:00:31.743Z,101236.02
2019-01-20T16:02:57.659Z,101237.31
2019-01-20T16:05:24.366Z,101240.12
2019-01-20T16:07:50.304Z,101242.65
2019-01-20T16:10:16.347Z,101247.68
2019-01-20T16:12:42.475Z,101246.37
2019-01-20T16:15:11.499Z,101250.47
2019-01-20T16:17:37.419Z,101257.30
2019-01-20T16:20:07.147Z,101248.70
2019-01-20T16:22:33.072Z,101250.85
2019-01-20T16:24:58.987Z,101256.33
2019-01-20T16:27:25.043Z,101258.89
2019-01-20T16:29:51.069Z,101267.10
2019-01-20T16:32:16.965Z,101269.61
2019-01-20T16:34:42.945Z,101266.05
2019-01-20T16:37:08.841Z,101270.26
2019-01-20T16:39:34.782Z,101272.91
2019-01-20T16:42:00.703Z,101269.77
2019-01-20T16:44:26.746Z,101271.82
2019-01-20T16:46:52.654Z,101280.41
2019-01-20T16:49:18.596Z,101279.90
2019-01-20T16:51:44.500Z,101281.01
2019-01-20T16:54:10.417Z,101285.23
2019-01-20T16:56:36.375Z,101294.53
2019-01-20T16:59:02.252Z,101292.49
2019-01-20T17:01:28.195Z,101299.47
2019-01-20T17:03:54.078Z,101303.28
2019-01-20T17:06:20.325Z,101301.44
2019-01-20T17:08:46.196Z,101307.02
2019-01-20T17:11:12.074Z,101312.96
2019-01-20T17:13:38.092Z,101309.13
2019-01-20T17:16:03.985Z,101316.29
2019-01-20T17:18:29.925Z,101315.37
2019-01-20T17:20:55.805Z,101315.37
2019-01-20T17:23:21.752Z,101318.73
2019-01-20T17:25:47.626Z,101323.05
2019-01-20T17:28:13.588Z,101321.05
2019-01-20T17:30:39.588Z,101325.07
2019-01-20T17:33:07.605Z,101323.84
2019-01-20T17:35:33.657Z,101327.36
2019-01-20T17:37:59.607Z,101329.16
2019-01-20T17:40:28.323Z,101334.59
2019-01-20T17:42:54.217Z,101335.12
2019-01-20T17:45:26.230Z,101338.48
2019-01-20T17:47:52.153Z,101343.23
2019-01-20T17:50:34.009Z,101351.16
2019-01-20T17:52:59.895Z,101351.94
2019-01-20T17:55:25.780Z,101351.86
2019-01-20T17:57:51.728Z,101354.17
2019-01-20T18:00:25.618Z,101358.48
2019-01-20T18:02:51.546Z,101348.80
2019-01-20T18:05:20.449Z,101358.91
2019-01-20T18:07:46.330Z,101354.56
2019-01-20T18:10:13.382Z,101350.16
2019-01-20T18:12:39.264Z,101358.72
2019-01-20T18:15:08.496Z,101361.25
2019-01-20T18:17:34.418Z,101358.59
2019-01-20T18:20:00.314Z,101364.63
2019-01-20T18:22:26.321Z,101367.58
2019-01-20T18:24:52.222Z,101369.63
2019-01-20T18:27:18.241Z,101375.63
2019-01-20T18:29:44.110Z,101375.58
2019-01-20T18:32:10.045Z,101381.06
2019-01-20T18:34:35.924Z,101383.95
2019-01-20T18:37:01.890Z,101389.52
2019-01-20T18:39:27.794Z,101395.43
2019-01-20T18:41:53.715Z,101395.87
2019-01-20T18:44:21.568Z,101396.48
2019-01-20T18:46:47.471Z,101399.65
2019-01-20T18:49:13.496Z,101396.41
2019-01-20T18:51:39.448Z,101397.09
2019-01-20T18:54:05.409Z,101402.31
2019-01-20T18:56:31.321Z,101402.66
2019-01-20T18:58:57.321Z,101403.76
2019-01-20T19:01:23.187Z,101406.25
2019-01-20T19:03:49.121Z,101412.16
2019-01-20T19:06:14.992Z,101414.19
2019-01-20T19:08:40.923Z,101418.84
2019-01-20T19:11:06.846Z,101422.36
2019-01-20T19:13:32.766Z,101421.73
2019-01-20T19:15:58.795Z,101414.83
2019-01-20T19:18:24.679Z,101427.72
2019-01-20T19:20:50.601Z,101429.16
2019-01-20T19:23:16.490Z,101428.01
2019-01-20T19:25:42.392Z,101433.31
2019-01-20T19:28:08.302Z,101427.84
2019-01-20T19:30:34.359Z,101427.36
2019-01-20T19:33:00.327Z,101425.34
2019-01-20T19:35:26.291Z,101428.84
2019-01-20T19:37:52.280Z,101427.34
2019-01-20T19:40:18.222Z,101429.68
2019-01-20T19:42:44.113Z,101425.36
2019-01-20T19:45:15.253Z,101430.91
2019-01-20T19:47:41.198Z,101432.30
2019-01-20T19:50:09.814Z,101430.45
2019-01-20T19:52:35.837Z,101431.64
2019-01-20T19:55:01.741Z,101437.71
2019-01-20T19:57:27.684Z,101439.60
2019-01-20T19:59:53.577Z,101442.23
2019-01-20T20:02:19.482Z,101443.02
2019-01-20T20:04:45.495Z,101444.25
2019-01-20T20:07:11.438Z,101448.85
2019-01-20T20:09:37.330Z,101444.59
2019-01-20T20:12:03.215Z,101454.39
2019-01-20T20:14:29.151Z,101449.08
2019-01-20T20:16:55.057Z,101457.97
2019-01-20T20:19:20.990Z,101452.83
2019-01-20T20:21:46.913Z,101462.19
2019-01-20T20:24:12.857Z,101462.01
2019-01-20T20:26:38.769Z,101458.15
2019-01-20T20:29:04.731Z,101464.94
2019-01-20T20:31:30.818Z,101466.50
2019-01-20T20:33:56.731Z,101475.51
2019-01-20T20:36:34.874Z,101478.73
2019-01-20T20:39:01.520Z,101484.84
2019-01-20T20:41:27.964Z,101486.52
2019-01-20T20:43:54.325Z,101488.09
2019-01-20T20:46:20.829Z,101496.41
2019-01-20T20:48:47.260Z,101494.07
2019-01-20T20:51:13.811Z,101498.20
2019-01-20T20:53:40.239Z,101504.08
2019-01-20T20:56:07.184Z,101503.97
2019-01-20T20:58:33.735Z,101505.02
2019-01-20T21:01:00.160Z,101505.31
2019-01-20T21:03:26.538Z,101518.20
2019-01-20T21:05:53.050Z,101518.29
2019-01-20T21:08:19.490Z,101522.20
2019-01-20T21:10:45.943Z,101522.13
2019-01-20T21:13:12.380Z,101524.32
2019-01-20T21:15:40.481Z,101524.58
2019-01-20T21:18:06.753Z,101529.73
2019-01-20T21:20:32.871Z,101527.16
2019-01-20T21:22:59.055Z,101527.09
2019-01-20T21:25:25.120Z,101527.61
2019-01-20T21:27:52.924Z,101533.16
2019-01-20T21:30:26.694Z,101536.62
2019-01-20T21:32:54.208Z,101531.08
2019-01-20T21:35:20.655Z,101538.36
2019-01-20T21:37:48.866Z,101534.44
2019-01-20T21:40:16.879Z,101541.05
2019-01-20T21:42:42.894Z,101541.05
2019-01-20T21:45:10.655Z,101543.13
2019-01-20T21:47:36.973Z,101541.76
2019-01-20T21:50:09.261Z,101541.76
2019-01-20T21:52:35.317Z,101547.22
2019-01-20T21:55:01.679Z,101548.79
2019-01-20T21:57:27.566Z,101550.59
2019-01-20T21:59:53.642Z,101560.16
2019-01-20T22:02:19.646Z,101551.66
2019-01-20T22:04:50.106Z,101552.05
2019-01-20T22:07:19.259Z,101548.97
2019-01-20T22:09:45.653Z,101551.73
2019-01-20T22:12:12.321Z,101548.64
2019-01-20T22:14:38.319Z,101551.02
2019-01-20T22:17:04.367Z,101552.52
2019-01-20T22:19:30.429Z,101558.61
2019-01-20T22:21:56.845Z,101549.23
2019-01-20T22:24:24.595Z,101558.03
2019-01-20T22:26:50.795Z,101559.37
2019-01-20T22:29:16.859Z,101562.45
2019-01-20T22:31:43.303Z,101559.44
2019-01-20T22:34:09.961Z,101554.42
2019-01-20T22:36:36.063Z,101562.72
2019-01-20T22:39:02.870Z,101563.02
2019-01-20T22:41:29.134Z,101561.38
2019-01-20T22:43:55.393Z,101560.80
2019-01-20T22:46:21.922Z,101565.81
2019-01-20T22:48:48.269Z,101573.66
2019-01-20T22:51:14.314Z,101570.05
2019-01-20T22:53:40.808Z,101574.36
2019-01-20T22:56:07.274Z,101578.39
2019-01-20T22:58:33.708Z,101576.03
2019-01-20T23:01:02.186Z,101577.44
2019-01-20T23:03:28.639Z,101573.09
2019-01-20T23:05:55.076Z,101576.15
2019-01-20T23:08:21.653Z,101583.38
2019-01-20T23:10:47.764Z,101570.77
2019-01-20T23:13:14.500Z,101581.66
2019-01-20T23:15:41.243Z,101578.84
2019-01-20T23:18:07.682Z,101578.30
2019-01-20T23:20:35.964Z,101575.11
2019-01-20T23:23:02.505Z,101582.16
2019-01-20T23:25:28.943Z,101573.49
2019-01-20T23:27:57.734Z,101583.13
2019-01-20T23:30:24.113Z,101578.30
2019-01-20T23:32:50.007Z,101576.09
2019-01-20T23:35:15.889Z,101581.93
2019-01-20T23:37:41.872Z,101575.91
2019-01-20T23:40:14.186Z,101579.60
2019-01-20T23:42:40.067Z,101576.58
2019-01-20T23:45:10.684Z,101580.41
2019-01-20T23:47:36.588Z,101580.82
2019-01-20T23:50:05.364Z,101581.58
2019-01-20T23:52:31.265Z,101586.72
2019-01-20T23:54:57.186Z,101579.72
2019-01-20T23:57:23.059Z,101591.51
2019-01-20T23:59:48.984Z,101593.13
